Current | Forecast
Updated: 7:30 AM WIB on February 26, 2018
Observed at Jakarta Soekarno-Hatta, Indonesia
Temperature 77°F
Humidity 94%
Dew Point 75°F
Wind West at 4 mph
Pressure 29.83 in (Steady)
Conditions Scattered Clouds
Visibility 3.1 miles
UV 2 out of 16
Clouds Scattered Clouds (SCT) : 1800 ft
Yesterday's Maximum 88°F
Yesterday's Minimum 75°F approx.
Yesterday's Cooling Degree Days 17 approx.
Sunrise6:01 AM WIB
Sunset6:15 PM WIB
Moon Rise2:55 PM WIB
Moon Set2:05 AM WIB
Moon PhaseMoon Phase
Waxing Gibbous
Raw METARMETAR WIII 260030Z 27003KT 5000 SCT018 25/24 Q1010 RERA NOSIG


Monday
. High: 87° F.
Tuesday
. High: 89° F.
Wednesday
. High: 86° F.
Thursday
. High: 87° F.
Friday
. High: 87° F.
Saturday
. High: 86° F.
Sunday
. High: 87° F.
Monday
. High: 86° F.

Units: English | Metric

Find the Weather for any City, State or Zipcode, or Country:

U.S. State List | Severe Weather | Tropical Storms | Ski Conditions
United States | Canada | Central America | South America | Asia | Europe | Australia | Africa | Islands

Weather Underground

© Copyright 2018
The Weather Company, LLC